Time,TemperatureF,DewpointF,PressureIn,WindDirection,WindDirectionDegrees,WindSpeedMPH,WindSpeedGustMPH,Humidity,HourlyPrecipIn,Conditions,Clouds,dailyrainin,SoftwareType,DateUTC
2013-08-31 00:12:00,59.0,57.0,-100.00,North,-999,-999.0,-999.0,94,-99.99,,,-99.99,,2013-08-31 07:12:00,
2013-08-31 00:42:00,58.0,56.0,-100.00,North,-999,-999.0,-999.0,95,-99.99,,,-99.99,,2013-08-31 07:42:00,
2013-08-31 00:52:00,57.0,56.0,-100.00,North,-999,-999.0,-999.0,95,-99.99,,,-99.99,,2013-08-31 07:52:00,
2013-08-31 01:12:00,57.0,56.0,-100.00,North,-999,-999.0,-999.0,95,-99.99,,,-99.99,,2013-08-31 08:12:00,
2013-08-31 01:22:00,57.0,55.0,-100.00,North,-999,-999.0,-999.0,95,-99.99,,,-99.99,,2013-08-31 08:22:00,
2013-08-31 01:42:00,57.0,55.0,-100.00,North,-999,-999.0,-999.0,95,-99.99,,,-99.99,,2013-08-31 08:42:00,
2013-08-31 01:52:00,56.0,55.0,-100.00,North,-999,-999.0,-999.0,96,-99.99,,,-99.99,,2013-08-31 08:52:00,
2013-08-31 02:12:00,56.0,55.0,-100.00,North,-999,-999.0,-999.0,96,-99.99,,,-99.99,,2013-08-31 09:12:00,
2013-08-31 02:23:00,56.0,55.0,-100.00,North,-999,-999.0,-999.0,96,-99.99,,,-99.99,,2013-08-31 09:23:00,
2013-08-31 02:43:00,56.0,54.0,-100.00,North,-999,-999.0,-999.0,96,-99.99,,,-99.99,,2013-08-31 09:43:00,
2013-08-31 02:53:00,56.0,54.0,-100.00,North,-999,-999.0,-999.0,96,-99.99,,,-99.99,,2013-08-31 09:53:00,
2013-08-31 03:12:00,55.0,54.0,-100.00,North,-999,-999.0,-999.0,96,-99.99,,,-99.99,,2013-08-31 10:12:00,
2013-08-31 03:23:00,55.0,54.0,-100.00,North,-999,-999.0,-999.0,96,-99.99,,,-99.99,,2013-08-31 10:23:00,
2013-08-31 03:43:00,55.0,54.0,-100.00,North,-999,-999.0,-999.0,96,-99.99,,,-99.99,,2013-08-31 10:43:00,
2013-08-31 03:53:00,54.0,53.0,-100.00,North,-999,-999.0,-999.0,96,-99.99,,,-99.99,,2013-08-31 10:53:00,
2013-08-31 04:12:00,54.0,53.0,-100.00,North,-999,-999.0,-999.0,96,-99.99,,,-99.99,,2013-08-31 11:12:00,
2013-08-31 04:21:00,54.0,53.0,-100.00,North,-999,-999.0,-999.0,96,-99.99,,,-99.99,,2013-08-31 11:21:00,
2013-08-31 04:42:00,54.0,53.0,-100.00,North,-999,-999.0,-999.0,96,-99.99,,,-99.99,,2013-08-31 11:42:00,
2013-08-31 04:52:00,54.0,52.0,-100.00,North,-999,-999.0,-999.0,96,-99.99,,,-99.99,,2013-08-31 11:52:00,
2013-08-31 05:11:00,53.0,52.0,-100.00,North,-999,-999.0,-999.0,96,-99.99,,,-99.99,,2013-08-31 12:11:00,
2013-08-31 05:22:00,53.0,53.0,-100.00,North,-999,-999.0,-999.0,97,-99.99,,,-99.99,,2013-08-31 12:22:00,
2013-08-31 05:42:00,53.0,52.0,-100.00,North,-999,-999.0,-999.0,97,-99.99,,,-99.99,,2013-08-31 12:42:00,
2013-08-31 05:52:00,53.0,52.0,-100.00,North,-999,-999.0,-999.0,97,-99.99,,,-99.99,,2013-08-31 12:52:00,
2013-08-31 06:11:00,53.0,52.0,-100.00,North,-999,-999.0,-999.0,97,-99.99,,,-99.99,,2013-08-31 13:11:00,
2013-08-31 06:22:00,53.0,52.0,-100.00,North,-999,-999.0,-999.0,97,-99.99,,,-99.99,,2013-08-31 13:22:00,
2013-08-31 06:42:00,53.0,52.0,-100.00,North,-999,-999.0,-999.0,97,-99.99,,,-99.99,,2013-08-31 13:42:00,
2013-08-31 06:52:00,52.0,52.0,-100.00,North,-999,-999.0,-999.0,97,-99.99,,,-99.99,,2013-08-31 13:52:00,
2013-08-31 07:11:00,53.0,52.0,-100.00,North,-999,-999.0,-999.0,97,-99.99,,,-99.99,,2013-08-31 14:11:00,
2013-08-31 07:22:00,52.0,52.0,-100.00,North,-999,-999.0,-999.0,97,-99.99,,,-99.99,,2013-08-31 14:22:00,
2013-08-31 07:42:00,52.0,51.0,-100.00,North,-999,-999.0,-999.0,97,-99.99,,,-99.99,,2013-08-31 14:42:00,
2013-08-31 07:52:00,52.0,52.0,-100.00,North,-999,-999.0,-999.0,97,-99.99,,,-99.99,,2013-08-31 14:52:00,
2013-08-31 08:11:00,52.0,52.0,-100.00,North,-999,-999.0,-999.0,97,-99.99,,,-99.99,,2013-08-31 15:11:00,
2013-08-31 08:23:00,52.0,52.0,-100.00,North,-999,-999.0,-999.0,97,-99.99,,,-99.99,,2013-08-31 15:23:00,
2013-08-31 08:44:00,53.0,52.0,-100.00,North,-999,-999.0,-999.0,97,-99.99,,,-99.99,,2013-08-31 15:44:00,
2013-08-31 08:55:00,53.0,52.0,-100.00,North,-999,-999.0,-999.0,97,-99.99,,,-99.99,,2013-08-31 15:55:00,
2013-08-31 09:13:00,53.0,53.0,-100.00,North,-999,-999.0,-999.0,97,-99.99,,,-99.99,,2013-08-31 16:13:00,
2013-08-31 09:25:00,54.0,53.0,-100.00,North,-999,-999.0,-999.0,97,-99.99,,,-99.99,,2013-08-31 16:25:00,
2013-08-31 09:44:00,55.0,55.0,-100.00,North,-999,-999.0,-999.0,97,-99.99,,,-99.99,,2013-08-31 16:44:00,
2013-08-31 09:52:00,57.0,56.0,-100.00,North,-999,-999.0,-999.0,97,-99.99,,,-99.99,,2013-08-31 16:52:00,
2013-08-31 10:12:00,58.0,57.0,-100.00,North,-999,-999.0,-999.0,96,-99.99,,,-99.99,,2013-08-31 17:12:00,
2013-08-31 11:12:00,64.0,60.0,-100.00,North,-999,-999.0,-999.0,86,-99.99,,,-99.99,,2013-08-31 18:12:00,
2013-08-31 11:21:00,67.0,61.0,-100.00,North,-999,-999.0,-999.0,82,-99.99,,,-99.99,,2013-08-31 18:21:00,
2013-08-31 11:42:00,68.0,61.0,-100.00,North,-999,-999.0,-999.0,78,-99.99,,,-99.99,,2013-08-31 18:42:00,
2013-08-31 11:52:00,69.0,62.0,-100.00,North,-999,-999.0,-999.0,78,-99.99,,,-99.99,,2013-08-31 18:52:00,
2013-08-31 12:12:00,74.0,64.0,-100.00,North,-999,-999.0,-999.0,71,-99.99,,,-99.99,,2013-08-31 19:12:00,
2013-08-31 12:22:00,77.0,61.0,-100.00,North,-999,-999.0,-999.0,58,-99.99,,,-99.99,,2013-08-31 19:22:00,
2013-08-31 12:42:00,80.0,60.0,-100.00,North,-999,-999.0,-999.0,50,-99.99,,,-99.99,,2013-08-31 19:42:00,
2013-08-31 12:52:00,82.0,57.0,-100.00,North,-999,-999.0,-999.0,43,-99.99,,,-99.99,,2013-08-31 19:52:00,
2013-08-31 13:12:00,84.0,54.0,-100.00,North,-999,-999.0,-999.0,35,-99.99,,,-99.99,,2013-08-31 20:12:00,
2013-08-31 13:22:00,85.0,54.0,-100.00,North,-999,-999.0,-999.0,34,-99.99,,,-99.99,,2013-08-31 20:22:00,
2013-08-31 13:42:00,85.0,59.0,-100.00,North,-999,-999.0,-999.0,41,-99.99,,,-99.99,,2013-08-31 20:42:00,
2013-08-31 13:52:00,83.0,63.0,-100.00,North,-999,-999.0,-999.0,50,-99.99,,,-99.99,,2013-08-31 20:52:00,
2013-08-31 14:12:00,84.0,61.0,-100.00,North,-999,-999.0,-999.0,45,-99.99,,,-99.99,,2013-08-31 21:12:00,
2013-08-31 14:22:00,84.0,60.0,-100.00,North,-999,-999.0,-999.0,45,-99.99,,,-99.99,,2013-08-31 21:22:00,
2013-08-31 14:44:00,84.0,60.0,-100.00,North,-999,-999.0,-999.0,44,-99.99,,,-99.99,,2013-08-31 21:44:00,
2013-08-31 14:54:00,82.0,61.0,-100.00,North,-999,-999.0,-999.0,48,-99.99,,,-99.99,,2013-08-31 21:54:00,
2013-08-31 15:13:00,83.0,63.0,-100.00,North,-999,-999.0,-999.0,52,-99.99,,,-99.99,,2013-08-31 22:13:00,
2013-08-31 15:43:00,83.0,60.0,-100.00,North,-999,-999.0,-999.0,46,-99.99,,,-99.99,,2013-08-31 22:43:00,
2013-08-31 15:53:00,83.0,62.0,-100.00,North,-999,-999.0,-999.0,48,-99.99,,,-99.99,,2013-08-31 22:53:00,
2013-08-31 16:12:00,83.0,59.0,-100.00,North,-999,-999.0,-999.0,45,-99.99,,,-99.99,,2013-08-31 23:12:00,
2013-08-31 16:22:00,83.0,59.0,-100.00,North,-999,-999.0,-999.0,44,-99.99,,,-99.99,,2013-08-31 23:22:00,
2013-08-31 16:42:00,84.0,64.0,-100.00,North,-999,-999.0,-999.0,52,-99.99,,,-99.99,,2013-08-31 23:42:00,
2013-08-31 16:52:00,82.0,59.0,-100.00,North,-999,-999.0,-999.0,45,-99.99,,,-99.99,,2013-08-31 23:52:00,
2013-08-31 17:11:00,83.0,59.0,-100.00,North,-999,-999.0,-999.0,45,-99.99,,,-99.99,,2013-09-01 00:11:00,
2013-08-31 17:21:00,83.0,59.0,-100.00,North,-999,-999.0,-999.0,45,-99.99,,,-99.99,,2013-09-01 00:21:00,
2013-08-31 17:52:00,79.0,63.0,-100.00,North,-999,-999.0,-999.0,57,-99.99,,,-99.99,,2013-09-01 00:52:00,
2013-08-31 18:11:00,80.0,65.0,-100.00,North,-999,-999.0,-999.0,61,-99.99,,,-99.99,,2013-09-01 01:11:00,
2013-08-31 18:21:00,77.0,64.0,-100.00,North,-999,-999.0,-999.0,65,-99.99,,,-99.99,,2013-09-01 01:21:00,
2013-08-31 19:53:00,71.0,63.0,-100.00,North,-999,-999.0,-999.0,76,-99.99,,,-99.99,,2013-09-01 02:53:00,
2013-08-31 20:12:00,71.0,63.0,-100.00,North,-999,-999.0,-999.0,77,-99.99,,,-99.99,,2013-09-01 03:12:00,
2013-08-31 20:23:00,70.0,64.0,-100.00,North,-999,-999.0,-999.0,80,-99.99,,,-99.99,,2013-09-01 03:23:00,
2013-08-31 20:54:00,68.0,63.0,-100.00,North,-999,-999.0,-999.0,82,-99.99,,,-99.99,,2013-09-01 03:54:00,
2013-08-31 21:14:00,68.0,63.0,-100.00,North,-999,-999.0,-999.0,84,-99.99,,,-99.99,,2013-09-01 04:14:00,
2013-08-31 21:24:00,67.0,63.0,-100.00,North,-999,-999.0,-999.0,86,-99.99,,,-99.99,,2013-09-01 04:24:00,
2013-08-31 21:43:00,67.0,63.0,-100.00,North,-999,-999.0,-999.0,86,-99.99,,,-99.99,,2013-09-01 04:43:00,
2013-08-31 21:54:00,66.0,62.0,-100.00,North,-999,-999.0,-999.0,87,-99.99,,,-99.99,,2013-09-01 04:54:00,
2013-08-31 22:12:00,65.0,62.0,-100.00,North,-999,-999.0,-999.0,88,-99.99,,,-99.99,,2013-09-01 05:12:00,
2013-08-31 22:23:00,65.0,61.0,-100.00,North,-999,-999.0,-999.0,88,-99.99,,,-99.99,,2013-09-01 05:23:00,
2013-08-31 22:43:00,65.0,61.0,-100.00,North,-999,-999.0,-999.0,89,-99.99,,,-99.99,,2013-09-01 05:43:00,
2013-08-31 22:52:00,64.0,61.0,-100.00,North,-999,-999.0,-999.0,89,-99.99,,,-99.99,,2013-09-01 05:52:00,
2013-08-31 23:12:00,64.0,61.0,-100.00,North,-999,-999.0,-999.0,90,-99.99,,,-99.99,,2013-09-01 06:12:00,
2013-08-31 23:22:00,64.0,61.0,-100.00,North,-999,-999.0,-999.0,90,-99.99,,,-99.99,,2013-09-01 06:22:00,
2013-08-31 23:42:00,63.0,60.0,-100.00,North,-999,-999.0,-999.0,91,-99.99,,,-99.99,,2013-09-01 06:42:00,
2013-08-31 23:52:00,63.0,60.0,-100.00,North,-999,-999.0,-999.0,91,-99.99,,,-99.99,,2013-09-01 06:52:00,